Time;durP1;ratioP1;P1;durP2;ratioP2;P2;SDS_P1;SDS_P2;PMS_P1;PMS_P2;Temp;Humidity;BMP_temperature;BMP_pressure;BME280_temperature;BME280_humidity;BME280_pressure;Samples;Min_cycle;Max_cycle;Signal;HPM_P1;HPM_P2
2022/12/14 00:01:18;;;;;;;19.23;14.10;;;-3.20;35.70;;;;;;4995264;28;20172;-49
2022/12/14 00:03:45;;;;;;;22.70;12.77;;;-3.20;35.60;;;;;;4995126;28;20190;-48
2022/12/14 00:06:13;;;;;;;20.30;12.93;;;-3.20;35.60;;;;;;4994932;28;20540;-49
2022/12/14 00:08:38;;;;;;;17.30;14.00;;;-3.10;35.80;;;;;;4994825;28;20234;-49
2022/12/14 00:11:04;;;;;;;16.07;12.13;;;-3.10;35.80;;;;;;4994746;28;20183;-49
2022/12/14 00:13:30;;;;;;;23.73;13.30;;;-3.00;35.90;;;;;;4994811;28;20199;-48
2022/12/14 00:15:56;;;;;;;28.27;14.40;;;-3.00;35.80;;;;;;4994916;28;20179;-48
2022/12/14 00:18:21;;;;;;;24.10;14.47;;;-3.00;35.80;;;;;;4994739;28;20198;-49
2022/12/14 00:20:47;;;;;;;27.23;15.30;;;-2.90;35.90;;;;;;4994628;28;20191;-49
2022/12/14 00:23:13;;;;;;;25.10;15.27;;;-2.90;36.00;;;;;;4994351;28;20175;-48
2022/12/14 00:25:39;;;;;;;30.42;15.88;;;-2.90;36.00;;;;;;4994538;28;20176;-48
2022/12/14 00:28:05;;;;;;;26.60;14.85;;;-2.90;36.30;;;;;;4994529;28;20186;-48
2022/12/14 00:30:31;;;;;;;28.80;14.67;;;-2.80;36.00;;;;;;4994660;28;20198;-49
2022/12/14 00:32:56;;;;;;;25.37;14.67;;;-2.90;36.10;;;;;;4994377;28;20187;-48
2022/12/14 00:35:22;;;;;;;28.33;16.63;;;-2.80;36.00;;;;;;4994398;28;20291;-48
2022/12/14 00:37:48;;;;;;;20.83;14.13;;;-2.80;36.00;;;;;;4994380;28;20195;-48
2022/12/14 00:40:14;;;;;;;25.37;13.27;;;-2.80;36.10;;;;;;4994219;28;20689;-48
2022/12/14 00:42:40;;;;;;;20.80;14.27;;;-2.70;36.10;;;;;;4994390;28;20670;-48
2022/12/14 00:45:07;;;;;;;25.85;14.38;;;-2.80;36.00;;;;;;4994065;28;20827;-48
2022/12/14 00:47:33;;;;;;;26.33;15.45;;;-2.80;36.00;;;;;;4994452;28;20179;-49
2022/12/14 00:49:59;;;;;;;24.63;13.53;;;-2.80;36.20;;;;;;4993933;28;20555;-48
2022/12/14 00:52:24;;;;;;;27.93;15.80;;;-2.80;36.30;;;;;;4994021;28;20211;-49
2022/12/14 00:54:50;;;;;;;25.80;14.17;;;-2.80;36.30;;;;;;4994117;28;20250;-49
2022/12/14 00:57:16;;;;;;;23.53;14.43;;;-2.80;36.30;;;;;;4993958;28;20175;-48
2022/12/14 00:59:42;;;;;;;19.10;13.23;;;-2.70;36.80;;;;;;4994076;28;20199;-48
2022/12/14 01:02:08;;;;;;;16.60;9.97;;;-2.80;36.80;;;;;;4993710;28;20171;-48
2022/12/14 01:04:33;;;;;;;20.70;11.40;;;-2.70;39.30;;;;;;4993926;28;20189;-48
2022/12/14 01:06:59;;;;;;;16.20;10.20;;;-2.50;42.10;;;;;;4994040;28;20229;-48
2022/12/14 01:09:25;;;;;;;17.63;10.30;;;-2.30;42.10;;;;;;4993673;28;20979;-49
2022/12/14 01:11:52;;;;;;;21.20;10.18;;;-2.00;43.10;;;;;;4993547;28;20179;-47
2022/12/14 01:14:19;;;;;;;19.10;11.02;;;-1.70;42.40;;;;;;4993746;28;20213;-49
2022/12/14 01:16:45;;;;;;;19.02;10.30;;;-1.50;41.50;;;;;;4993644;28;20854;-49
2022/12/14 01:19:15;;;;;;;16.47;10.77;;;-1.30;41.30;;;;;;4993558;28;20199;-48
2022/12/14 01:21:41;;;;;;;18.30;10.05;;;-1.20;41.80;;;;;;4993472;28;20441;-49
2022/12/14 01:24:07;;;;;;;16.60;10.63;;;-1.00;41.50;;;;;;4993250;28;20242;-48
2022/12/14 01:26:37;;;;;;;22.98;11.52;;;-0.90;41.20;;;;;;4993440;28;20266;-48
2022/12/14 01:29:03;;;;;;;19.52;11.57;;;-0.80;40.80;;;;;;4993270;28;20199;-48
2022/12/14 01:31:33;;;;;;;13.93;8.95;;;-0.70;40.80;;;;;;4993480;28;20179;-49
2022/12/14 01:33:59;;;;;;;15.25;8.68;;;-0.70;40.70;;;;;;4975563;28;20611;-49
2022/12/14 01:36:31;;;;;;;14.13;9.90;;;-0.70;40.90;;;;;;4993207;28;20175;-49
2022/12/14 01:39:02;;;;;;;19.52;10.32;;;-0.60;40.70;;;;;;4993198;28;20187;-48
2022/12/14 01:41:36;;;;;;;17.65;10.40;;;-0.60;40.50;;;;;;4993342;28;20167;-49
2022/12/14 01:44:08;;;;;;;15.23;9.27;;;-0.60;40.70;;;;;;4993049;28;20182;-49
2022/12/14 01:46:55;;;;;;;19.75;11.30;;;-0.50;40.50;;;;;;4993100;28;20180;-49
2022/12/14 01:49:41;;;;;;;13.68;9.68;;;-0.50;40.30;;;;;;4992945;28;20618;-49
2022/12/14 01:52:25;;;;;;;16.55;9.52;;;-0.40;40.00;;;;;;4993094;28;20238;-48
2022/12/14 01:54:54;;;;;;;15.43;9.15;;;-0.40;39.80;;;;;;4992803;28;20621;-49
2022/12/14 01:57:26;;;;;;;20.10;10.73;;;-0.30;39.70;;;;;;4992615;28;20187;-48
2022/12/14 01:59:54;;;;;;;14.70;9.30;;;-0.20;39.50;;;;;;4992826;28;20207;-49
2022/12/14 02:02:21;;;;;;;17.48;10.38;;;-0.20;39.40;;;;;;4992613;28;20673;-49
2022/12/14 02:04:56;;;;;;;13.75;10.10;;;-0.20;39.30;;;;;;4992779;28;20187;-48
2022/12/14 02:07:24;;;;;;;14.15;8.93;;;-0.20;39.20;;;;;;4992835;28;20183;-48
2022/12/14 02:09:51;;;;;;;15.95;9.82;;;-0.10;39.10;;;;;;4992655;28;20191;-49
2022/12/14 02:12:28;;;;;;;16.95;10.90;;;-0.10;39.00;;;;;;4992750;28;20545;-48
2022/12/14 02:14:55;;;;;;;14.52;8.88;;;-0.10;38.90;;;;;;4992701;28;20619;-48
2022/12/14 02:17:21;;;;;;;17.30;9.82;;;-0.10;38.90;;;;;;4992734;28;20183;-48
2022/12/14 02:19:48;;;;;;;16.30;10.20;;;0.00;38.70;;;;;;4992664;28;20195;-48
2022/12/14 02:22:50;;;;;;;13.05;10.40;;;0.00;38.70;;;;;;4992346;28;20237;-49
2022/12/14 02:25:41;;;;;;;15.35;8.80;;;0.00;38.70;;;;;;4992596;28;20625;-49
2022/12/14 02:28:47;;;;;;;16.77;10.55;;;-0.10;38.90;;;;;;4992527;28;20619;-49
2022/12/14 02:31:30;;;;;;;16.73;9.93;;;-0.20;38.90;;;;;;4992885;28;20183;-48
2022/12/14 02:34:08;;;;;;;19.08;9.60;;;-0.20;38.90;;;;;;4992349;28;20214;-48
2022/12/14 02:37:14;;;;;;;17.35;10.23;;;-0.10;39.00;;;;;;4992545;28;20176;-48
2022/12/14 02:39:59;;;;;;;19.30;10.95;;;-0.10;38.90;;;;;;4969882;28;20198;-49
2022/12/14 02:42:59;;;;;;;20.55;10.50;;;-0.10;39.00;;;;;;4992186;28;20646;-49
2022/12/14 02:45:36;;;;;;;23.73;11.57;;;-0.10;38.90;;;;;;4962097;28;20618;-49
2022/12/14 02:48:25;;;;;;;17.13;11.40;;;0.00;38.80;;;;;;4992565;28;20250;-49
2022/12/14 02:51:07;;;;;;;17.50;12.25;;;0.00;38.70;;;;;;4982667;28;20295;-48
2022/12/14 02:54:24;;;;;;;19.00;9.93;;;0.00;38.70;;;;;;4992075;28;20198;-48
2022/12/14 02:57:02;;;;;;;18.50;10.93;;;-0.10;38.70;;;;;;4913129;29;20174;-49
2022/12/14 02:59:29;;;;;;;19.17;10.55;;;0.00;38.80;;;;;;4913191;29;20706;-49
2022/12/14 03:01:55;;;;;;;21.38;11.00;;;-0.10;38.80;;;;;;4913018;29;20186;-48
2022/12/14 03:04:22;;;;;;;16.95;11.18;;;-0.10;38.70;;;;;;4913181;29;20174;-49
2022/12/14 03:06:55;;;;;;;15.80;9.30;;;0.00;38.70;;;;;;4913187;29;20704;-48
2022/12/14 03:09:21;;;;;;;14.57;10.60;;;0.00;38.70;;;;;;4916468;29;20272;-48
2022/12/14 03:11:58;;;;;;;17.43;10.30;;;0.00;38.70;;;;;;4916712;29;20182;-48
2022/12/14 03:14:45;;;;;;;16.00;11.07;;;0.10;38.60;;;;;;4916740;29;20971;-50
2022/12/14 03:17:17;;;;;;;13.98;10.57;;;0.10;38.40;;;;;;4916777;29;20166;-49
2022/12/14 03:19:51;;;;;;;16.85;11.93;;;0.20;38.40;;;;;;4916566;29;20221;-49
2022/12/14 03:22:26;;;;;;;19.15;10.50;;;0.10;38.40;;;;;;4916297;29;20609;-49
2022/12/14 03:25:07;;;;;;;16.90;10.80;;;0.10;38.40;;;;;;4916607;29;20185;-48
2022/12/14 03:27:37;;;;;;;19.15;11.57;;;0.20;38.30;;;;;;4955230;28;20259;-49
2022/12/14 03:30:11;;;;;;;17.80;10.75;;;0.20;38.30;;;;;;4995622;28;20266;-49
2022/12/14 03:32:43;;;;;;;21.35;11.60;;;0.20;38.20;;;;;;4977930;28;20570;-48
2022/12/14 03:35:14;;;;;;;13.32;9.55;;;0.20;38.20;;;;;;4995588;28;20167;-48
2022/12/14 03:37:52;;;;;;;17.33;9.98;;;0.30;38.10;;;;;;4995532;28;20178;-49
2022/12/14 03:40:21;;;;;;;20.80;12.07;;;0.20;38.10;;;;;;4995493;28;20197;-47
2022/12/14 03:43:12;;;;;;;15.35;10.30;;;0.20;38.10;;;;;;4995235;28;20642;-48
2022/12/14 03:45:54;;;;;;;22.10;12.07;;;0.10;38.40;;;;;;4995270;28;20178;-48
2022/12/14 03:48:57;;;;;;;18.00;10.32;;;0.10;38.50;;;;;;4995500;28;20261;-47
2022/12/14 03:51:53;;;;;;;17.23;10.25;;;0.20;38.40;;;;;;4954638;28;20580;-49
2022/12/14 03:54:42;;;;;;;18.17;10.00;;;0.20;38.40;;;;;;4995061;28;20202;-49
2022/12/14 03:57:26;;;;;;;25.60;12.52;;;0.20;38.40;;;;;;4995138;28;20152;-49
2022/12/14 04:00:06;;;;;;;16.05;10.90;;;0.20;38.30;;;;;;4995094;28;20191;-48
2022/12/14 04:02:55;;;;;;;25.55;10.68;;;0.20;38.40;;;;;;4995016;28;20183;-49
2022/12/14 04:05:38;;;;;;;20.92;10.63;;;0.20;38.40;;;;;;4977581;28;20160;-48
2022/12/14 04:08:21;;;;;;;17.35;11.35;;;0.20;38.30;;;;;;4994989;28;20183;-49
2022/12/14 04:19:23;;;;;;;16.88;11.73;;;0.20;38.20;;;;;;4994583;28;20220;-48
2022/12/14 04:22:01;;;;;;;15.70;11.25;;;0.30;38.30;;;;;;4994933;28;20254;-49
2022/12/14 04:27:36;;;;;;;15.27;11.40;;;0.30;38.20;;;;;;4994681;28;20202;-49
2022/12/14 04:30:04;;;;;;;17.15;11.70;;;0.30;38.10;;;;;;4994774;28;20195;-49
2022/12/14 04:32:52;;;;;;;20.00;11.35;;;0.20;38.10;;;;;;4994326;28;20266;-49
2022/12/14 04:35:39;;;;;;;18.95;11.90;;;0.20;38.20;;;;;;4994693;28;20241;-48
2022/12/14 04:38:13;;;;;;;18.35;10.80;;;0.20;38.20;;;;;;4994673;28;20174;-48
2022/12/14 04:40:46;;;;;;;22.05;11.20;;;0.20;38.20;;;;;;4994561;28;20197;-49
2022/12/14 04:43:15;;;;;;;15.98;11.38;;;0.30;38.20;;;;;;4994153;28;20172;-49
2022/12/14 04:45:49;;;;;;;18.80;11.70;;;0.20;38.10;;;;;;4994232;28;20186;-49
2022/12/14 04:48:34;;;;;;;14.18;9.93;;;0.30;38.20;;;;;;4994458;28;20195;-49
2022/12/14 04:51:14;;;;;;;14.82;10.50;;;0.30;38.30;;;;;;4994300;28;20191;-48
2022/12/14 04:53:43;;;;;;;13.13;9.63;;;0.30;38.30;;;;;;4993829;28;20752;-49
2022/12/14 04:56:26;;;;;;;16.75;11.30;;;0.20;38.10;;;;;;4994236;28;20198;-48
2022/12/14 04:58:52;;;;;;;15.65;10.02;;;0.20;38.30;;;;;;4993941;28;20203;-48
2022/12/14 05:01:27;;;;;;;19.90;10.80;;;0.20;38.20;;;;;;4993951;28;20167;-48
2022/12/14 05:04:14;;;;;;;17.52;9.88;;;0.30;38.30;;;;;;4993732;28;20172;-49
2022/12/14 05:07:04;;;;;;;19.75;12.18;;;0.20;38.20;;;;;;4993767;28;20175;-49
2022/12/14 05:09:44;;;;;;;18.05;10.18;;;0.20;38.20;;;;;;4993911;28;20234;-48
2022/12/14 05:12:26;;;;;;;15.85;10.20;;;0.30;38.40;;;;;;4993608;28;20182;-49
2022/12/14 05:15:02;;;;;;;11.90;9.15;;;0.30;38.30;;;;;;4994040;28;20174;-49
2022/12/14 05:17:28;;;;;;;19.13;9.95;;;0.20;38.20;;;;;;4993657;28;20170;-49
2022/12/14 05:19:54;;;;;;;18.13;11.55;;;0.80;39.10;;;;;;4993668;28;20210;-49
2022/12/14 05:22:20;;;;;;;17.53;9.53;;;0.20;38.30;;;;;;4993562;28;20167;-48
2022/12/14 05:24:45;;;;;;;16.00;12.37;;;0.30;38.30;;;;;;4993383;28;20679;-48
2022/12/14 05:27:11;;;;;;;15.30;10.20;;;0.30;38.30;;;;;;4993420;28;20208;-49
2022/12/14 05:29:37;;;;;;;12.93;10.15;;;0.20;38.40;;;;;;4993028;28;20423;-48
2022/12/14 05:32:03;;;;;;;14.63;9.97;;;0.20;38.30;;;;;;4992637;28;20190;-48
2022/12/14 05:34:29;;;;;;;15.40;9.57;;;0.30;38.30;;;;;;4993424;28;20206;-48
2022/12/14 05:36:55;;;;;;;17.73;11.48;;;0.30;38.30;;;;;;4993450;28;20410;-48
2022/12/14 05:39:21;;;;;;;15.73;10.35;;;0.20;38.30;;;;;;4993091;28;20705;-48
2022/12/14 05:41:47;;;;;;;18.60;11.17;;;0.10;38.50;;;;;;4992931;28;20171;-48
2022/12/14 05:44:12;;;;;;;14.43;9.60;;;0.20;38.60;;;;;;4992873;28;20662;-48
2022/12/14 05:46:39;;;;;;;15.00;10.67;;;0.20;38.40;;;;;;4993189;28;20265;-48
2022/12/14 05:49:04;;;;;;;16.17;10.75;;;0.20;38.40;;;;;;4993036;28;20215;-49
2022/12/14 05:51:30;;;;;;;15.73;11.30;;;0.30;38.40;;;;;;4993303;28;20187;-48
2022/12/14 05:53:57;;;;;;;14.77;8.93;;;0.30;38.30;;;;;;4992647;28;20562;-49
2022/12/14 05:56:23;;;;;;;14.65;10.15;;;0.30;38.30;;;;;;4993019;28;20186;-49
2022/12/14 05:58:49;;;;;;;16.37;11.70;;;0.30;38.20;;;;;;4993051;28;20183;-48
2022/12/14 06:01:15;;;;;;;16.58;10.82;;;0.40;38.20;;;;;;4992905;28;20403;-49
2022/12/14 06:03:41;;;;;;;12.13;9.40;;;0.40;38.00;;;;;;4992754;28;20688;-49
2022/12/14 06:06:10;;;;;;;17.53;9.83;;;0.40;38.00;;;;;;4992784;28;20543;-48
2022/12/14 06:08:38;;;;;;;17.35;9.68;;;0.40;38.10;;;;;;4992688;28;20437;-48
2022/12/14 06:11:07;;;;;;;17.08;9.80;;;0.50;38.00;;;;;;4992767;28;20182;-48
2022/12/14 06:13:34;;;;;;;12.70;9.57;;;0.50;37.90;;;;;;4992259;28;20284;-49
2022/12/14 06:16:27;;;;;;;13.57;9.10;;;0.50;38.00;;;;;;4992816;28;20183;-49
2022/12/14 06:18:57;;;;;;;16.58;10.57;;;0.50;37.90;;;;;;4988939;28;20634;-48
2022/12/14 06:21:25;;;;;;;17.35;10.70;;;0.50;37.80;;;;;;4975188;28;20186;-49
2022/12/14 06:23:53;;;;;;;19.95;11.40;;;0.50;37.80;;;;;;4992158;28;20252;-49
2022/12/14 06:26:18;;;;;;;19.77;12.88;;;0.50;38.00;;;;;;4992715;28;20577;-48
2022/12/14 06:28:44;;;;;;;24.00;12.50;;;0.50;37.80;;;;;;4992381;28;20175;-49
2022/12/14 06:31:15;;;;;;;18.13;10.43;;;0.50;37.80;;;;;;4992794;28;20186;-50
2022/12/14 06:33:41;;;;;;;16.58;12.07;;;0.50;37.80;;;;;;4992351;28;20281;-48
2022/12/14 06:36:21;;;;;;;16.77;11.10;;;0.50;37.80;;;;;;4992405;28;20371;-49
2022/12/14 06:38:47;;;;;;;17.05;11.00;;;0.50;37.90;;;;;;4992384;28;20660;-49
2022/12/14 06:41:13;;;;;;;17.70;11.47;;;0.50;37.90;;;;;;4992708;28;20207;-48
2022/12/14 06:43:38;;;;;;;22.43;14.30;;;0.50;38.00;;;;;;4996574;28;20188;-49
2022/12/14 06:46:14;;;;;;;15.67;9.63;;;0.50;38.10;;;;;;4996557;28;20448;-49
2022/12/14 06:48:40;;;;;;;16.48;12.02;;;0.40;38.20;;;;;;4996159;28;20182;-48
2022/12/14 06:51:06;;;;;;;22.60;12.37;;;0.40;38.30;;;;;;4996291;28;20234;-49
2022/12/14 06:53:33;;;;;;;15.30;10.90;;;0.40;38.40;;;;;;4996362;28;20443;-49
2022/12/14 06:56:11;;;;;;;15.40;9.88;;;0.50;38.40;;;;;;4996412;28;20190;-48
2022/12/14 06:58:37;;;;;;;16.17;10.75;;;0.60;38.20;;;;;;4996127;28;20175;-49
2022/12/14 07:01:04;;;;;;;21.88;12.43;;;0.50;38.20;;;;;;4996160;28;20221;-50
2022/12/14 07:03:30;;;;;;;22.13;11.77;;;0.50;38.30;;;;;;4995820;28;20183;-49
2022/12/14 07:05:58;;;;;;;19.70;11.50;;;0.50;38.30;;;;;;4996265;28;20194;-49
2022/12/14 07:08:24;;;;;;;26.85;12.38;;;0.50;38.50;;;;;;4996238;28;20421;-48
2022/12/14 07:10:51;;;;;;;17.52;11.05;;;0.60;38.30;;;;;;4995882;28;20692;-48
2022/12/14 07:13:17;;;;;;;16.55;10.40;;;0.70;38.30;;;;;;4995726;28;20287;-48
2022/12/14 07:15:43;;;;;;;23.08;11.45;;;0.70;38.10;;;;;;4995917;28;20188;-49
2022/12/14 07:18:09;;;;;;;17.58;11.63;;;0.70;38.00;;;;;;4996094;28;20185;-49
2022/12/14 07:20:35;;;;;;;16.75;10.80;;;0.70;38.00;;;;;;4995638;28;20273;-49
2022/12/14 07:23:01;;;;;;;15.63;12.13;;;0.70;38.10;;;;;;4995484;28;20219;-49
2022/12/14 07:25:26;;;;;;;20.30;11.17;;;0.70;37.90;;;;;;4995787;28;20172;-49
2022/12/14 07:27:52;;;;;;;18.20;11.07;;;0.70;37.90;;;;;;4995909;28;20567;-48
2022/12/14 07:30:18;;;;;;;16.43;11.00;;;0.70;37.90;;;;;;4995495;28;20253;-49
2022/12/14 07:32:44;;;;;;;16.23;10.93;;;0.80;37.80;;;;;;4995163;28;20241;-48
2022/12/14 07:35:10;;;;;;;16.92;11.88;;;0.80;37.80;;;;;;4995444;28;20175;-49
2022/12/14 07:37:36;;;;;;;19.40;10.70;;;0.80;38.50;;;;;;4995633;28;20234;-49
2022/12/14 07:40:03;;;;;;;19.90;11.67;;;0.70;37.90;;;;;;4995377;28;20192;-49
2022/12/14 07:42:29;;;;;;;20.17;12.27;;;0.70;38.10;;;;;;4995472;28;20185;-49
2022/12/14 07:44:54;;;;;;;19.10;11.03;;;0.70;38.10;;;;;;4995297;28;20542;-49
2022/12/14 07:47:20;;;;;;;21.00;11.87;;;0.70;38.20;;;;;;4995470;28;20180;-48
2022/12/14 07:49:46;;;;;;;19.53;12.17;;;0.80;38.10;;;;;;4995178;28;20217;-48
2022/12/14 07:52:11;;;;;;;18.67;10.50;;;0.90;38.10;;;;;;4994910;28;20231;-48
2022/12/14 07:54:37;;;;;;;20.03;11.20;;;0.90;38.10;;;;;;4994470;28;20205;-49
2022/12/14 07:57:03;;;;;;;14.27;11.23;;;0.90;38.20;;;;;;4995400;28;20262;-49
2022/12/14 07:59:28;;;;;;;21.87;11.47;;;0.90;38.30;;;;;;4995041;28;20253;-48
2022/12/14 08:01:54;;;;;;;22.90;12.40;;;1.00;38.20;;;;;;4995160;28;20175;-49
2022/12/14 08:04:20;;;;;;;11.47;9.10;;;1.00;38.20;;;;;;4977485;28;20200;-48
2022/12/14 08:06:47;;;;;;;19.63;10.43;;;0.90;38.30;;;;;;4994917;28;20183;-49
2022/12/14 08:09:14;;;;;;;14.43;11.00;;;0.80;38.60;;;;;;4995153;28;20517;-49
2022/12/14 08:11:40;;;;;;;19.55;11.73;;;0.90;38.70;;;;;;4995099;28;20190;-49
2022/12/14 08:14:10;;;;;;;17.00;10.70;;;1.00;38.60;;;;;;4994466;28;20257;-50
2022/12/14 08:16:36;;;;;;;17.42;11.95;;;1.00;38.30;;;;;;4994693;28;20890;-48
2022/12/14 08:19:02;;;;;;;16.70;11.20;;;1.10;38.40;;;;;;4994718;28;20198;-49
2022/12/14 08:21:28;;;;;;;16.52;10.20;;;1.10;38.40;;;;;;4994700;28;20173;-49
2022/12/14 08:23:55;;;;;;;15.23;10.73;;;1.20;38.50;;;;;;4994517;28;20188;-49
2022/12/14 08:26:23;;;;;;;20.83;12.80;;;1.20;38.50;;;;;;4994623;28;20321;-50
2022/12/14 08:28:49;;;;;;;16.42;11.00;;;1.20;38.20;;;;;;4994715;28;20188;-49
2022/12/14 08:31:20;;;;;;;16.77;10.85;;;1.30;38.30;;;;;;4994487;28;20715;-48
2022/12/14 08:33:47;;;;;;;18.00;11.20;;;1.30;38.10;;;;;;4994501;28;20207;-49
2022/12/14 08:36:16;;;;;;;17.25;11.38;;;1.40;38.00;;;;;;4994489;28;20204;-49
2022/12/14 08:38:42;;;;;;;17.05;11.55;;;1.50;38.10;;;;;;4994638;28;20185;-50
2022/12/14 08:41:10;;;;;;;19.67;11.55;;;1.60;38.00;;;;;;4994749;28;20181;-50
2022/12/14 08:43:37;;;;;;;15.85;11.45;;;1.60;37.70;;;;;;4994036;28;20729;-49
2022/12/14 08:46:03;;;;;;;13.85;9.52;;;1.60;37.50;;;;;;4994246;28;20194;-50
2022/12/14 08:48:29;;;;;;;18.75;12.65;;;1.60;37.30;;;;;;4993976;28;20188;-50
2022/12/14 08:51:03;;;;;;;22.80;12.30;;;1.60;37.60;;;;;;4994096;28;20212;-49
2022/12/14 08:53:30;;;;;;;16.13;11.40;;;1.60;37.60;;;;;;4993870;28;20568;-49
2022/12/14 08:55:55;;;;;;;14.45;9.80;;;1.70;37.70;;;;;;4994036;28;20183;-50
2022/12/14 08:58:21;;;;;;;18.00;12.20;;;1.80;37.60;;;;;;4993885;28;20322;-49
2022/12/14 09:00:47;;;;;;;20.70;12.93;;;1.80;37.50;;;;;;4994180;28;20190;-49
2022/12/14 09:03:12;;;;;;;23.07;13.93;;;1.80;37.30;;;;;;4993922;28;20214;-49
2022/12/14 09:05:38;;;;;;;18.60;12.80;;;1.80;37.50;;;;;;4992916;28;20182;-50
2022/12/14 09:08:04;;;;;;;22.23;14.27;;;1.90;37.50;;;;;;4993884;28;20524;-49
2022/12/14 09:10:30;;;;;;;18.88;12.02;;;1.90;37.40;;;;;;4993613;28;20201;-49
2022/12/14 09:12:57;;;;;;;19.40;11.83;;;1.90;37.30;;;;;;4993746;28;20235;-49
2022/12/14 09:15:24;;;;;;;17.40;12.05;;;1.90;37.60;;;;;;4993685;28;20179;-49
2022/12/14 09:17:50;;;;;;;15.77;11.75;;;2.00;37.40;;;;;;4993669;28;20205;-49
2022/12/14 09:20:17;;;;;;;23.40;13.83;;;2.00;37.30;;;;;;4993783;28;20689;-48
2022/12/14 09:22:43;;;;;;;17.45;11.45;;;2.10;37.30;;;;;;4993346;28;20907;-49
2022/12/14 09:25:09;;;;;;;18.80;10.60;;;2.10;37.30;;;;;;4993495;28;20193;-48
2022/12/14 09:27:35;;;;;;;17.23;13.00;;;2.10;37.10;;;;;;4993763;28;20909;-49
2022/12/14 09:30:00;;;;;;;19.97;10.93;;;2.20;37.30;;;;;;4993646;28;20196;-48
2022/12/14 09:32:29;;;;;;;18.43;12.83;;;2.20;37.10;;;;;;4993420;28;20826;-48
2022/12/14 09:34:55;;;;;;;21.77;12.77;;;2.30;37.50;;;;;;4993321;28;20204;-50
2022/12/14 09:37:21;;;;;;;22.80;12.80;;;2.40;37.30;;;;;;4993541;28;20330;-49
2022/12/14 09:39:46;;;;;;;17.73;12.05;;;2.40;36.90;;;;;;4993291;28;20749;-49
2022/12/14 09:42:38;;;;;;;17.70;11.97;;;2.30;36.70;;;;;;4993035;28;20180;-48
2022/12/14 09:45:33;;;;;;;15.70;11.18;;;2.40;36.80;;;;;;4993229;28;20320;-49
2022/12/14 09:48:19;;;;;;;18.67;12.43;;;2.30;36.90;;;;;;4993112;28;20528;-49
2022/12/14 09:50:49;;;;;;;20.10;12.82;;;2.20;37.10;;;;;;4992915;28;20613;-49
2022/12/14 09:53:17;;;;;;;30.88;12.95;;;2.10;37.60;;;;;;4992618;28;20284;-49
2022/12/14 09:55:48;;;;;;;17.60;11.85;;;2.00;37.80;;;;;;4993089;28;20163;-49
2022/12/14 09:58:21;;;;;;;17.30;11.60;;;2.10;38.00;;;;;;4992981;28;20169;-50
2022/12/14 10:00:56;;;;;;;17.85;12.68;;;2.10;37.70;;;;;;4992964;28;20208;-48
2022/12/14 10:03:34;;;;;;;18.67;12.95;;;2.10;37.90;;;;;;4992648;28;20651;-49
2022/12/14 10:06:38;;;;;;;17.70;11.40;;;2.30;37.70;;;;;;4993157;28;20180;-49
2022/12/14 10:19:45;;;;;;;20.33;12.82;;;2.50;37.50;;;;;;4992861;28;20536;-49
2022/12/14 10:22:36;;;;;;;19.52;12.43;;;2.50;37.20;;;;;;4992512;28;20178;-49
2022/12/14 10:25:15;;;;;;;16.55;11.90;;;2.50;37.50;;;;;;4983528;28;20547;-49
2022/12/14 10:27:49;;;;;;;18.23;13.15;;;2.50;37.30;;;;;;4992615;28;20158;-50
2022/12/14 10:30:18;;;;;;;22.63;12.77;;;2.50;37.00;;;;;;4992665;28;20272;-49
2022/12/14 10:33:13;;;;;;;18.65;14.00;;;2.50;37.50;;;;;;4992319;28;20316;-50
2022/12/14 10:35:54;;;;;;;19.83;12.98;;;2.60;37.20;;;;;;4975400;28;20176;-49
2022/12/14 10:38:31;;;;;;;20.25;13.95;;;2.70;37.20;;;;;;4992385;28;20174;-50
2022/12/14 10:41:12;;;;;;;19.52;14.23;;;2.80;36.90;;;;;;4975057;28;20264;-50
2022/12/14 10:43:55;;;;;;;21.17;13.60;;;3.00;37.00;;;;;;4992306;28;20226;-49
2022/12/14 10:46:28;;;;;;;16.73;13.55;;;3.10;36.70;;;;;;4992674;28;20177;-49
2022/12/14 10:49:16;;;;;;;21.05;12.80;;;3.10;36.60;;;;;;4992399;28;20215;-50
2022/12/14 10:52:16;;;;;;;24.85;15.35;;;3.10;36.60;;;;;;4992359;28;20231;-49
2022/12/14 10:54:57;;;;;;;21.02;12.85;;;3.20;36.40;;;;;;4949342;28;20587;-49
2022/12/14 10:57:25;;;;;;;20.38;12.55;;;3.00;36.20;;;;;;4992312;28;20180;-49
2022/12/14 10:59:51;;;;;;;23.08;14.98;;;3.00;36.60;;;;;;4992254;28;20562;-49
2022/12/14 11:02:21;;;;;;;17.08;12.23;;;3.00;36.80;;;;;;4992032;28;20192;-49
2022/12/14 11:04:57;;;;;;;20.00;12.90;;;3.00;36.30;;;;;;4992200;28;20185;-49
2022/12/14 11:07:25;;;;;;;21.58;13.95;;;3.00;36.90;;;;;;4992259;28;20185;-50
2022/12/14 11:09:51;;;;;;;19.75;14.07;;;3.00;36.70;;;;;;4992298;28;20223;-50
2022/12/14 11:12:25;;;;;;;23.20;13.43;;;3.10;36.50;;;;;;4992248;28;20191;-50
2022/12/14 11:15:00;;;;;;;20.58;12.40;;;3.10;36.30;;;;;;4991996;28;20295;-50
2022/12/14 11:17:37;;;;;;;18.65;13.05;;;3.10;36.30;;;;;;4992027;28;20241;-50
2022/12/14 11:20:21;;;;;;;24.40;13.77;;;3.10;36.60;;;;;;4991913;28;20190;-50
2022/12/14 11:23:05;;;;;;;21.83;13.65;;;3.10;36.50;;;;;;4991844;28;20691;-50
2022/12/14 11:25:41;;;;;;;24.63;14.45;;;3.00;36.50;;;;;;4991962;28;20177;-50
2022/12/14 11:28:38;;;;;;;21.35;14.40;;;3.10;36.30;;;;;;4991981;28;20265;-49
2022/12/14 11:31:03;;;;;;;18.95;13.05;;;3.10;36.40;;;;;;4994519;28;20234;-50
2022/12/14 11:33:37;;;;;;;16.67;13.30;;;3.00;36.30;;;;;;4995351;28;20202;-50
2022/12/14 11:36:04;;;;;;;21.25;13.75;;;2.90;36.40;;;;;;4995520;28;20175;-49
2022/12/14 11:38:32;;;;;;;20.48;13.85;;;2.90;36.50;;;;;;4995694;28;20177;-49
2022/12/14 11:41:01;;;;;;;20.58;12.57;;;2.90;36.70;;;;;;4995766;28;20317;-50
2022/12/14 11:43:28;;;;;;;21.85;16.75;;;3.00;36.40;;;;;;4995120;28;20220;-49
2022/12/14 11:45:56;;;;;;;19.30;13.18;;;2.90;36.70;;;;;;4995341;28;20185;-50
2022/12/14 11:48:26;;;;;;;21.50;14.55;;;2.90;36.60;;;;;;4995216;28;20270;-50
2022/12/14 11:50:54;;;;;;;23.15;13.95;;;2.90;37.00;;;;;;4995234;28;20689;-49
2022/12/14 11:53:21;;;;;;;24.48;14.82;;;2.80;36.80;;;;;;4994915;28;20846;-50
2022/12/14 11:56:00;;;;;;;21.25;14.30;;;2.80;36.60;;;;;;4995219;28;20178;-50
2022/12/14 11:58:31;;;;;;;23.15;14.95;;;2.80;36.70;;;;;;4995392;28;20223;-48
2022/12/14 12:01:03;;;;;;;21.42;13.07;;;2.80;37.00;;;;;;4995286;28;20213;-48
2022/12/14 12:03:34;;;;;;;26.52;14.88;;;2.90;36.90;;;;;;4995112;28;20180;-49
2022/12/14 12:06:06;;;;;;;23.90;14.80;;;2.90;36.90;;;;;;4995245;28;20165;-48
2022/12/14 12:08:36;;;;;;;24.02;16.52;;;2.80;36.50;;;;;;4994927;28;20178;-51
2022/12/14 12:11:12;;;;;;;26.83;16.70;;;2.80;36.80;;;;;;4994854;28;20177;-50
2022/12/14 12:13:40;;;;;;;18.90;13.57;;;2.70;37.00;;;;;;4994603;28;20197;-52
2022/12/14 12:16:09;;;;;;;21.50;14.63;;;2.70;37.30;;;;;;4995011;28;20185;-50
2022/12/14 12:18:53;;;;;;;27.40;16.73;;;2.70;37.80;;;;;;4994878;28;20178;-52
2022/12/14 12:21:23;;;;;;;23.92;15.25;;;2.80;37.20;;;;;;4994843;28;20154;-51
2022/12/14 12:24:13;;;;;;;29.52;18.05;;;2.90;37.00;;;;;;4994434;28;20263;-50
2022/12/14 12:26:41;;;;;;;21.65;14.18;;;3.00;37.10;;;;;;4994685;28;20179;-51
2022/12/14 12:29:28;;;;;;;26.25;15.07;;;3.00;37.10;;;;;;4994688;28;20572;-50
2022/12/14 12:32:18;;;;;;;25.10;15.80;;;2.90;36.90;;;;;;4994707;28;20227;-52
2022/12/14 12:35:25;;;;;;;24.77;14.73;;;2.90;37.00;;;;;;4994613;28;20297;-51
2022/12/14 12:38:07;;;;;;;25.23;16.10;;;2.90;37.20;;;;;;4993876;28;20716;-50
2022/12/14 12:40:58;;;;;;;28.52;17.70;;;2.90;37.30;;;;;;4993998;28;20221;-52
2022/12/14 12:43:55;;;;;;;22.55;13.63;;;2.80;37.40;;;;;;4983520;28;20289;-52
2022/12/14 12:46:32;;;;;;;24.45;16.02;;;2.80;37.50;;;;;;4993490;28;20613;-52
2022/12/14 12:49:05;;;;;;;21.67;14.50;;;2.90;37.30;;;;;;4993983;28;20295;-50
2022/12/14 12:51:43;;;;;;;23.80;14.75;;;3.00;37.20;;;;;;4994333;28;20187;-52
2022/12/14 12:54:23;;;;;;;28.48;15.52;;;3.00;37.00;;;;;;4993876;28;20706;-52
2022/12/14 12:56:51;;;;;;;23.67;16.27;;;2.90;37.40;;;;;;4994153;28;20182;-51
2022/12/14 12:59:39;;;;;;;25.25;17.38;;;2.90;37.40;;;;;;4993857;28;20187;-52
2022/12/14 13:02:17;;;;;;;23.20;16.30;;;3.00;37.40;;;;;;4993619;28;20320;-51
2022/12/14 13:04:47;;;;;;;27.88;14.85;;;3.10;37.40;;;;;;4993907;28;20177;-52
2022/12/14 13:07:35;;;;;;;24.17;14.45;;;3.10;38.00;;;;;;4994087;28;20190;-49
2022/12/14 13:10:21;;;;;;;25.58;16.05;;;3.10;36.90;;;;;;4976309;28;20263;-49
2022/12/14 13:13:01;;;;;;;26.05;16.20;;;3.10;37.20;;;;;;4993581;28;20186;-49
2022/12/14 13:15:30;;;;;;;23.48;17.02;;;3.10;37.10;;;;;;4993830;28;20161;-50
2022/12/14 13:18:10;;;;;;;32.25;16.92;;;3.10;37.40;;;;;;4993654;28;20629;-49
2022/12/14 13:20:35;;;;;;;27.75;18.58;;;3.10;37.30;;;;;;4993613;28;20594;-49
2022/12/14 13:23:03;;;;;;;26.23;17.80;;;3.20;36.90;;;;;;4993511;28;20178;-49
2022/12/14 13:25:43;;;;;;;27.35;18.50;;;3.10;37.20;;;;;;4993467;28;20942;-49